Watts, Oklahoma
Current Conditions -  °F | °C
As of 5:55 PM on Saturday 25 Oct 2014 (Local Time) from KSLG Reporting Station
Clear Clear  
Wind Chill: 79°   Ceiling: Unl
Heat Index: 80°   Visibility: 10mi
Dew Point: 63°   Wind: 6mph
Humidity: 57%   Direction: 210°SSW
Pressure: 30.06"   Gusts: NA
Location:  36.11°N, 94.57°W
Report Text: KSLG 252255Z AUTO 21005KT 10SM CLR 26/17 A3006 RMK AO1
Loading
Personal Weather Stations






























Interactive Weather Map
Tropical Storm Tracking
New forecast layout! Learn more

10-Day Weather Forecast

Advertisements
Track Severe Weather on mobile